Time;durP1;ratioP1;P1;durP2;ratioP2;P2;SDS_P1;SDS_P2;PMS_P1;PMS_P2;Temp;Humidity;BMP_temperature;BMP_pressure;BME280_temperature;BME280_humidity;BME280_pressure;Samples;Min_cycle;Max_cycle;Signal;HPM_P1;HPM_P2
2023/07/26 00:00:16;;;;;;;11.18;6.47;;;;;;;11.60;100.00;95451.03;1018638;29;20632;-74
2023/07/26 00:00:49;;;;;;;15.07;6.45;;;;;;;11.55;100.00;95448.44;1018202;29;20088;-76
2023/07/26 00:01:20;;;;;;;13.30;6.75;;;;;;;11.56;100.00;95445.53;1011795;29;20608;-75
2023/07/26 00:01:51;;;;;;;9.40;6.35;;;;;;;11.52;100.00;95444.53;1017937;29;20038;-76
2023/07/26 00:02:21;;;;;;;11.52;6.30;;;;;;;11.52;100.00;95449.78;1015850;29;20032;-75
2023/07/26 00:02:52;;;;;;;10.73;7.10;;;;;;;11.55;100.00;95449.22;1022751;28;20490;-77
2023/07/26 00:03:22;;;;;;;13.35;6.55;;;;;;;11.59;100.00;95446.84;1022859;29;20154;-74
2023/07/26 00:03:58;;;;;;;12.15;6.55;;;;;;;11.54;100.00;95446.91;1022735;28;20039;-75
2023/07/26 00:04:28;;;;;;;11.80;6.43;;;;;;;11.60;100.00;95455.50;1018774;29;20043;-75
2023/07/26 00:04:59;;;;;;;10.15;7.03;;;;;;;11.46;100.00;95437.75;1015415;29;20112;-76
2023/07/26 00:05:30;;;;;;;12.02;6.40;;;;;;;11.52;100.00;95443.75;1014753;29;20028;-77
2023/07/26 00:06:01;;;;;;;10.27;6.30;;;;;;;11.55;100.00;95443.97;1016592;29;20581;-74
2023/07/26 00:06:32;;;;;;;12.52;7.18;;;;;;;11.50;100.00;95440.59;1022624;29;20505;-75
2023/07/26 00:07:02;;;;;;;10.48;6.50;;;;;;;11.50;100.00;95446.66;1020025;29;20028;-75
2023/07/26 00:07:33;;;;;;;11.77;6.88;;;;;;;11.59;100.00;95453.94;1025748;28;20621;-75
2023/07/26 00:08:04;;;;;;;11.00;6.40;;;;;;;11.57;100.00;95452.38;1022752;29;20078;-76
2023/07/26 00:08:34;;;;;;;14.90;6.43;;;;;;;11.59;100.00;95448.69;1026322;28;20041;-76
2023/07/26 00:09:05;;;;;;;12.50;6.78;;;;;;;11.48;100.00;95433.00;1022487;28;20034;-75
2023/07/26 00:09:36;;;;;;;13.18;6.35;;;;;;;11.44;100.00;95436.47;1018585;29;20030;-77
2023/07/26 00:10:07;;;;;;;14.63;7.00;;;;;;;11.49;100.00;95439.81;1018755;29;20058;-74
2023/07/26 00:10:37;;;;;;;15.20;7.70;;;;;;;11.49;100.00;95444.28;1018119;29;20024;-75
2023/07/26 00:11:08;;;;;;;9.38;6.72;;;;;;;11.54;100.00;95452.16;1018531;29;20126;-75
2023/07/26 00:11:38;;;;;;;10.00;6.43;;;;;;;11.55;100.00;95451.84;1018634;29;20061;-74
2023/07/26 00:12:09;;;;;;;9.35;6.53;;;;;;;11.55;100.00;95454.50;1022893;28;20038;-75
2023/07/26 00:12:39;;;;;;;11.95;6.07;;;;;;;11.53;100.00;95448.72;1022337;29;20070;-75
2023/07/26 00:13:10;;;;;;;16.52;7.45;;;;;;;11.49;100.00;95439.81;1026736;28;20049;-75
2023/07/26 00:13:40;;;;;;;12.43;7.70;;;;;;;11.52;100.00;95441.91;1022559;29;20039;-75
2023/07/26 00:14:11;;;;;;;12.50;7.07;;;;;;;11.60;100.00;95450.25;1022423;28;20038;-77
2023/07/26 00:14:41;;;;;;;14.88;7.28;;;;;;;11.62;100.00;95453.38;1022668;29;20027;-75
2023/07/26 00:15:12;;;;;;;10.15;6.35;;;;;;;11.52;100.00;95444.53;1018753;29;20031;-75
2023/07/26 00:15:42;;;;;;;13.68;6.50;;;;;;;11.53;100.00;95446.09;1014858;29;20031;-75
2023/07/26 00:16:13;;;;;;;9.70;6.57;;;;;;;11.50;100.00;95449.28;1014516;29;20043;-75
2023/07/26 00:16:43;;;;;;;16.35;7.57;;;;;;;11.57;100.00;95456.84;1010892;29;20036;-74
2023/07/26 00:17:14;;;;;;;9.18;6.53;;;;;;;11.58;100.00;95455.78;1014685;29;20032;-75
2023/07/26 00:17:44;;;;;;;13.15;8.30;;;;;;;11.55;100.00;95456.34;1016656;28;20397;-74
2023/07/26 00:18:15;;;;;;;12.23;6.88;;;;;;;11.55;100.00;95459.75;1018781;28;20036;-75
2023/07/26 00:18:45;;;;;;;12.18;6.85;;;;;;;11.55;100.00;95454.50;1018762;29;20047;-74
2023/07/26 00:19:19;;;;;;;13.98;6.65;;;;;;;11.52;100.00;95449.78;1014529;29;20040;-76
2023/07/26 00:19:49;;;;;;;13.77;7.60;;;;;;;11.59;100.00;95459.97;1018649;29;20126;-75
2023/07/26 00:20:20;;;;;;;16.17;7.75;;;;;;;11.51;100.00;95448.22;1018242;29;20043;-75
2023/07/26 00:20:50;;;;;;;13.15;6.97;;;;;;;11.54;100.00;95460.03;1014782;29;20107;-75
2023/07/26 00:21:21;;;;;;;12.90;7.43;;;;;;;11.52;100.00;95459.50;1015294;28;20650;-75
2023/07/26 00:21:51;;;;;;;13.95;7.38;;;;;;;11.50;100.00;95454.53;1026549;28;20034;-75
2023/07/26 00:22:21;;;;;;;12.40;7.22;;;;;;;11.45;100.00;95448.53;1014985;29;20042;-76
2023/07/26 00:22:52;;;;;;;16.00;7.68;;;;;;;11.44;100.00;95444.34;1022477;29;20031;-75
2023/07/26 00:23:23;;;;;;;15.20;7.88;;;;;;;11.50;100.00;95457.16;1022784;29;20192;-76
2023/07/26 00:23:53;;;;;;;10.05;6.97;;;;;;;11.43;100.00;95451.41;1018539;29;20036;-78
2023/07/26 00:24:24;;;;;;;16.13;7.70;;;;;;;11.48;100.00;95454.03;1018608;29;20776;-74
2023/07/26 00:24:55;;;;;;;14.55;7.38;;;;;;;11.50;100.00;95457.16;1014929;29;20024;-75
2023/07/26 00:25:25;;;;;;;14.73;8.23;;;;;;;11.53;100.00;95458.44;1022790;28;20027;-76
2023/07/26 00:25:56;;;;;;;16.60;8.13;;;;;;;11.43;100.00;95445.38;1026409;28;20030;-76
2023/07/26 00:26:26;;;;;;;15.48;8.20;;;;;;;11.58;100.00;95458.41;1018587;29;20563;-76
2023/07/26 00:26:57;;;;;;;22.40;8.13;;;;;;;11.59;100.00;95457.34;1018877;29;20537;-75
2023/07/26 00:27:27;;;;;;;14.50;7.47;;;;;;;11.58;100.00;95466.31;1022687;28;20035;-75
2023/07/26 00:27:57;;;;;;;13.50;7.32;;;;;;;11.57;100.00;95456.84;1026082;28;20053;-75
2023/07/26 00:28:28;;;;;;;14.10;7.45;;;;;;;11.45;100.00;95449.31;1022069;29;20034;-75
2023/07/26 00:28:59;;;;;;;14.63;7.45;;;;;;;11.57;100.00;95460.25;1018346;29;20036;-77
2023/07/26 00:29:29;;;;;;;13.68;7.90;;;;;;;11.55;100.00;95458.97;1015283;29;20032;-75
2023/07/26 00:30:00;;;;;;;14.85;7.70;;;;;;;11.52;100.00;95452.41;1016861;29;20559;-77
2023/07/26 00:30:30;;;;;;;15.18;8.15;;;;;;;11.56;100.00;95456.03;1014059;29;20063;-75
2023/07/26 00:31:01;;;;;;;19.88;8.70;;;;;;;11.63;100.00;95468.09;1014534;29;20047;-75
2023/07/26 00:31:31;;;;;;;13.95;7.50;;;;;;;11.53;100.00;95466.31;1018563;28;20035;-74
2023/07/26 00:32:02;;;;;;;19.65;8.13;;;;;;;11.51;100.00;95463.22;1018490;28;20527;-76
2023/07/26 00:32:32;;;;;;;15.23;8.02;;;;;;;11.52;100.00;95468.19;1022372;29;20043;-75
2023/07/26 00:33:03;;;;;;;14.68;8.77;;;;;;;11.52;100.00;95464.75;1018484;29;20031;-76
2023/07/26 00:33:33;;;;;;;14.93;7.45;;;;;;;11.50;100.00;95478.19;1018566;29;20031;-76
2023/07/26 00:34:04;;;;;;;12.18;7.40;;;;;;;11.33;100.00;95441.81;1022731;28;20031;-76
2023/07/26 00:34:35;;;;;;;14.48;8.25;;;;;;;11.48;100.00;95464.53;1026393;28;20034;-76
2023/07/26 00:35:06;;;;;;;19.08;9.45;;;;;;;11.49;100.00;95460.84;1018673;29;20024;-75
2023/07/26 00:35:40;;;;;;;16.17;9.15;;;;;;;11.50;100.00;95467.69;1010724;29;20705;-76
2023/07/26 00:36:11;;;;;;;13.93;8.25;;;;;;;11.42;100.00;95460.38;1018597;29;20016;-75
2023/07/26 00:36:41;;;;;;;15.20;8.00;;;;;;;11.49;100.00;95466.09;1018487;29;20028;-77
2023/07/26 00:37:12;;;;;;;14.07;7.70;;;;;;;11.45;100.00;95461.66;1015020;29;20024;-76
2023/07/26 00:37:42;;;;;;;12.40;7.50;;;;;;;11.42;100.00;95460.38;1018904;29;20116;-77
2023/07/26 00:38:12;;;;;;;11.35;8.18;;;;;;;11.47;100.00;95468.22;1022335;29;20011;-77
2023/07/26 00:38:43;;;;;;;18.98;8.60;;;;;;;11.46;100.00;95471.88;1019185;29;20031;-77
2023/07/26 00:39:14;;;;;;;15.68;9.38;;;;;;;11.44;100.00;95465.38;1018454;29;20028;-77
2023/07/26 00:39:45;;;;;;;16.33;8.48;;;;;;;11.45;100.00;95462.44;1019694;29;20032;-78
2023/07/26 00:40:16;;;;;;;19.02;8.80;;;;;;;11.39;100.00;95455.66;1018598;28;20062;-76
2023/07/26 00:40:46;;;;;;;17.20;8.77;;;;;;;11.35;100.00;95457.28;1014078;29;20478;-75
2023/07/26 00:41:17;;;;;;;16.27;8.30;;;;;;;11.43;100.00;95472.44;1018659;29;20032;-76
2023/07/26 00:41:47;;;;;;;17.05;8.52;;;;;;;11.44;100.00;95468.78;1022496;28;20027;-75
2023/07/26 00:42:18;;;;;;;14.15;7.55;;;;;;;11.36;100.00;95456.19;1018884;28;20114;-77
2023/07/26 00:42:49;;;;;;;13.20;7.97;;;;;;;11.32;100.00;95449.94;1014549;29;20028;-75
2023/07/26 00:43:19;;;;;;;15.07;8.07;;;;;;;11.39;100.00;95460.91;1013087;29;20032;-76
2023/07/26 00:43:50;;;;;;;14.48;8.40;;;;;;;11.25;100.00;95449.47;1018642;29;20036;-76
2023/07/26 00:44:20;;;;;;;14.77;7.90;;;;;;;11.32;100.00;95460.44;1018449;29;20764;-76
2023/07/26 00:44:51;;;;;;;13.13;8.25;;;;;;;11.40;100.00;95477.47;1018265;29;20028;-74
2023/07/26 00:45:21;;;;;;;14.55;8.30;;;;;;;11.31;100.00;95458.88;1018706;29;20031;-76
2023/07/26 00:45:52;;;;;;;15.70;8.38;;;;;;;11.33;100.00;95459.38;1022445;29;20497;-77
2023/07/26 00:46:22;;;;;;;14.52;9.25;;;;;;;11.40;100.00;95474.84;1022565;29;20066;-77
2023/07/26 00:46:52;;;;;;;18.60;8.25;;;;;;;11.27;100.00;95453.41;1014310;29;20036;-76
2023/07/26 00:47:23;;;;;;;13.30;7.78;;;;;;;11.39;100.00;95481.94;1014723;29;20035;-76
2023/07/26 00:47:53;;;;;;;17.10;8.60;;;;;;;11.31;100.00;95470.16;1014648;29;20039;-77
2023/07/26 00:48:24;;;;;;;16.98;7.90;;;;;;;11.29;100.00;95467.03;1018509;28;20553;-76
2023/07/26 00:48:55;;;;;;;13.02;7.68;;;;;;;11.33;100.00;95464.63;1018596;29;20042;-75
2023/07/26 00:49:25;;;;;;;15.40;8.50;;;;;;;11.30;100.00;95462.53;1018409;29;20035;-76
2023/07/26 00:49:56;;;;;;;16.90;8.52;;;;;;;11.22;100.00;95450.00;1015623;29;20028;-75
2023/07/26 00:50:26;;;;;;;11.27;7.43;;;;;;;11.33;100.00;95462.81;1018280;29;20561;-75
2023/07/26 00:50:57;;;;;;;12.75;7.57;;;;;;;11.39;100.00;95486.41;1014315;29;20039;-75
2023/07/26 00:51:27;;;;;;;14.82;8.48;;;;;;;11.42;100.00;95480.59;1018709;29;20036;-77
2023/07/26 00:51:57;;;;;;;14.55;8.35;;;;;;;11.31;100.00;95469.38;1018342;29;20032;-76
2023/07/26 00:52:28;;;;;;;15.43;7.90;;;;;;;11.37;100.00;95489.31;1026490;28;20031;-75
2023/07/26 00:52:58;;;;;;;17.85;8.43;;;;;;;11.37;100.00;95478.81;1018318;29;20028;-76
2023/07/26 00:53:29;;;;;;;13.55;8.57;;;;;;;11.31;100.00;95475.41;1022485;29;20023;-77
2023/07/26 00:53:59;;;;;;;14.75;7.88;;;;;;;11.37;100.00;95484.06;1022528;28;20035;-77
2023/07/26 00:54:30;;;;;;;16.75;9.35;;;;;;;11.42;100.00;95488.50;1022793;29;20039;-75
2023/07/26 00:55:02;;;;;;;17.02;8.65;;;;;;;11.35;100.00;95480.91;1022411;28;20050;-75
2023/07/26 00:55:33;;;;;;;13.10;7.78;;;;;;;11.27;100.00;95476.25;1018468;28;20315;-76
2023/07/26 00:56:03;;;;;;;15.30;7.88;;;;;;;11.18;100.00;95459.50;1026511;28;20035;-78
2023/07/26 00:56:34;;;;;;;14.88;8.38;;;;;;;11.27;100.00;95474.41;1018504;29;20787;-77
2023/07/26 00:57:05;;;;;;;13.95;7.90;;;;;;;11.31;100.00;95485.16;1014462;29;20024;-75
2023/07/26 00:57:35;;;;;;;15.65;8.68;;;;;;;11.24;100.00;95480.19;1011239;29;20051;-76
2023/07/26 00:58:06;;;;;;;18.75;8.73;;;;;;;11.33;100.00;95493.53;1015101;29;20024;-75
2023/07/26 00:58:36;;;;;;;14.23;7.53;;;;;;;11.32;100.00;95486.72;1020889;29;20838;-76
2023/07/26 00:59:07;;;;;;;17.50;8.98;;;;;;;11.25;100.00;95475.72;1018506;29;20031;-77
2023/07/26 00:59:37;;;;;;;15.40;8.48;;;;;;;11.33;100.00;95493.53;1014820;29;20063;-77
2023/07/26 01:00:08;;;;;;;14.35;7.82;;;;;;;11.31;100.00;95487.78;1018535;29;20662;-76
2023/07/26 01:00:40;;;;;;;14.48;8.05;;;;;;;11.25;100.00;95481.75;1014102;29;20020;-76
2023/07/26 01:01:11;;;;;;;13.82;8.27;;;;;;;11.32;100.00;95484.09;1006728;29;20025;-77
2023/07/26 01:01:41;;;;;;;15.43;9.57;;;;;;;11.30;100.00;95484.38;1014501;29;20115;-77
2023/07/26 01:02:12;;;;;;;12.88;8.10;;;;;;;11.32;100.00;95492.75;1014476;29;20430;-76
2023/07/26 01:02:42;;;;;;;14.88;8.55;;;;;;;11.29;100.00;95488.03;1018483;29;20028;-77
2023/07/26 01:03:13;;;;;;;13.88;8.55;;;;;;;11.25;100.00;95483.59;1018491;29;20075;-75
2023/07/26 01:03:44;;;;;;;13.43;8.38;;;;;;;11.31;100.00;95495.66;1018645;28;20496;-75
2023/07/26 01:04:14;;;;;;;12.75;8.00;;;;;;;11.29;100.00;95492.50;1022446;29;20126;-77
2023/07/26 01:04:45;;;;;;;13.25;8.32;;;;;;;11.31;100.00;95495.66;1026561;28;20456;-77
2023/07/26 01:05:15;;;;;;;12.65;7.63;;;;;;;11.32;100.00;95494.59;1022172;28;20031;-77
2023/07/26 01:05:54;;;;;;;17.80;9.02;;;;;;;11.32;100.00;95494.59;1022696;28;20035;-75
2023/07/26 01:07:01;;;;;;;12.32;7.82;;;;;;;11.30;100.00;95505.38;1026502;28;20023;-77
2023/07/26 01:07:46;;;;;;;16.58;8.48;;;;;;;11.34;100.00;95497.75;1027127;28;20673;-75
2023/07/26 01:08:40;;;;;;;15.23;8.30;;;;;;;11.33;100.00;95504.84;1030449;28;20294;-75
2023/07/26 01:09:14;;;;;;;13.75;8.13;;;;;;;11.35;100.00;95499.31;1030231;28;20300;-76
2023/07/26 01:10:14;;;;;;;15.35;8.10;;;;;;;11.26;100.00;95493.81;1030447;28;20345;-77
2023/07/26 01:10:56;;;;;;;13.90;8.13;;;;;;;11.24;100.00;95490.72;1025843;28;20353;-75
2023/07/26 01:11:32;;;;;;;15.80;8.35;;;;;;;11.29;100.00;95493.28;1018585;29;20346;-76
2023/07/26 01:12:07;;;;;;;17.85;9.15;;;;;;;11.25;100.00;95481.75;1018417;29;20031;-74
2023/07/26 01:12:47;;;;;;;16.58;9.50;;;;;;;11.27;100.00;95481.50;1026177;28;20026;-76
2023/07/26 01:13:20;;;;;;;12.57;7.45;;;;;;;11.29;100.00;95497.75;1026413;28;20345;-75
2023/07/26 01:13:55;;;;;;;17.80;8.52;;;;;;;11.29;100.00;95489.88;1026256;28;20034;-75
2023/07/26 01:15:06;;;;;;;17.77;8.73;;;;;;;11.27;100.00;95492.00;1026387;28;20037;-75
2023/07/26 01:15:37;;;;;;;16.63;8.43;;;;;;;11.20;100.00;95473.94;1023942;28;20274;-75
2023/07/26 01:16:07;;;;;;;17.52;9.60;;;;;;;11.26;100.00;95487.78;1021041;28;20047;-78
2023/07/26 01:16:38;;;;;;;18.48;9.25;;;;;;;11.21;100.00;95483.38;1026412;28;20321;-76
2023/07/26 01:17:08;;;;;;;16.48;8.60;;;;;;;11.16;100.00;95472.09;1018252;29;20032;-77
2023/07/26 01:17:39;;;;;;;15.23;9.32;;;;;;;11.27;100.00;95489.38;1010380;29;20869;-75
2023/07/26 01:18:10;;;;;;;16.52;8.88;;;;;;;11.26;100.00;95485.16;1014446;29;20065;-75
2023/07/26 01:18:41;;;;;;;14.52;8.73;;;;;;;11.28;100.00;95489.09;1018583;29;20056;-75
2023/07/26 01:19:11;;;;;;;12.90;8.32;;;;;;;11.23;100.00;95490.97;1021091;28;20275;-75
2023/07/26 01:19:42;;;;;;;14.40;8.32;;;;;;;11.27;100.00;95492.00;1022566;29;20028;-75
2023/07/26 01:20:12;;;;;;;16.98;8.70;;;;;;;11.21;100.00;95485.22;1022268;28;20509;-75
2023/07/26 01:20:43;;;;;;;15.18;8.98;;;;;;;11.22;100.00;95481.53;1025817;28;20030;-76
2023/07/26 01:21:13;;;;;;;13.27;8.55;;;;;;;11.20;100.00;95486.25;1022277;28;20031;-77
2023/07/26 01:21:44;;;;;;;16.65;9.75;;;;;;;11.29;100.00;95492.50;1018467;29;20020;-77
2023/07/26 01:22:14;;;;;;;21.33;9.70;;;;;;;11.23;100.00;95485.72;1014418;29;20044;-76
2023/07/26 01:22:45;;;;;;;14.75;8.70;;;;;;;11.30;100.00;95494.06;1018313;29;20642;-75
2023/07/26 01:23:15;;;;;;;14.82;9.05;;;;;;;11.25;100.00;95486.25;1016130;29;20032;-75
2023/07/26 01:23:46;;;;;;;14.63;9.13;;;;;;;11.30;100.00;95491.44;1018522;29;20035;-77
2023/07/26 01:24:16;;;;;;;17.35;10.25;;;;;;;11.28;100.00;95489.09;1022192;29;20038;-76
2023/07/26 01:24:46;;;;;;;12.18;7.95;;;;;;;11.27;100.00;95499.88;1022216;29;20374;-75
2023/07/26 01:25:17;;;;;;;17.38;8.20;;;;;;;11.23;100.00;95493.59;1014317;29;20051;-77
2023/07/26 01:25:48;;;;;;;17.20;8.73;;;;;;;11.23;100.00;95488.34;1014535;29;20127;-76
2023/07/26 01:26:19;;;;;;;15.10;9.55;;;;;;;11.29;100.00;95497.75;1020686;29;20023;-75
2023/07/26 01:26:49;;;;;;;14.00;8.23;;;;;;;11.29;100.00;95492.50;1026320;28;20732;-75
2023/07/26 01:27:20;;;;;;;14.55;8.10;;;;;;;11.33;100.00;95498.78;1022431;28;20023;-74
2023/07/26 01:27:50;;;;;;;15.52;9.27;;;;;;;11.32;100.00;95502.47;1022072;29;20031;-75
2023/07/26 01:28:21;;;;;;;14.55;8.15;;;;;;;11.30;100.00;95500.13;1018397;29;20028;-75
2023/07/26 01:28:51;;;;;;;12.85;7.85;;;;;;;11.18;100.00;95488.38;1014291;29;20360;-76
2023/07/26 01:29:22;;;;;;;13.65;7.97;;;;;;;11.28;100.00;95496.97;1014540;29;20024;-74
2023/07/26 01:29:55;;;;;;;17.38;8.95;;;;;;;11.17;100.00;95486.81;1017597;29;20036;-75
2023/07/26 01:30:29;;;;;;;15.15;8.70;;;;;;;11.23;100.00;95498.84;1013761;29;20036;-75
2023/07/26 01:31:00;;;;;;;13.70;8.52;;;;;;;11.27;100.00;95499.88;1015329;29;20542;-75
2023/07/26 01:31:30;;;;;;;15.45;9.68;;;;;;;11.27;100.00;95499.88;1014236;29;20273;-74
2023/07/26 01:32:01;;;;;;;12.57;7.72;;;;;;;11.21;100.00;95491.25;1015176;29;20060;-75
2023/07/26 01:32:31;;;;;;;14.93;9.27;;;;;;;11.26;100.00;95493.06;1015018;29;20023;-75
2023/07/26 01:33:05;;;;;;;17.13;8.85;;;;;;;11.24;100.00;95498.59;1018329;29;20052;-75
2023/07/26 01:33:36;;;;;;;16.20;9.05;;;;;;;11.25;100.00;95488.84;1021191;29;20049;-78
2023/07/26 01:34:07;;;;;;;14.50;8.57;;;;;;;11.24;100.00;95489.94;1026392;28;20050;-75
2023/07/26 01:34:38;;;;;;;16.42;8.38;;;;;;;11.23;100.00;95493.59;1020867;29;20541;-76
2023/07/26 01:35:08;;;;;;;13.35;9.15;;;;;;;11.32;100.00;95503.25;1022367;29;20937;-76
2023/07/26 01:35:39;;;;;;;16.17;9.13;;;;;;;11.35;100.00;95509.81;1018503;29;20026;-74
2023/07/26 01:36:09;;;;;;;14.55;8.60;;;;;;;11.24;100.00;95495.97;1022280;28;20090;-76
2023/07/26 01:36:40;;;;;;;13.13;8.35;;;;;;;11.26;100.00;95498.31;1018162;29;20482;-75
2023/07/26 01:37:11;;;;;;;13.88;8.30;;;;;;;11.21;100.00;95495.72;1022469;29;20031;-75
2023/07/26 01:37:41;;;;;;;11.75;7.45;;;;;;;11.28;100.00;95498.81;1018505;29;20528;-77
2023/07/26 01:38:11;;;;;;;17.33;8.80;;;;;;;11.25;100.00;95505.41;1019782;29;20513;-77
2023/07/26 01:38:42;;;;;;;16.17;8.18;;;;;;;11.30;100.00;95512.44;1014435;29;20066;-76
2023/07/26 01:39:13;;;;;;;15.50;9.32;;;;;;;11.30;100.00;95512.44;1014539;29;20035;-75
2023/07/26 01:39:43;;;;;;;14.38;8.23;;;;;;;11.27;100.00;95503.28;1015713;29;20028;-77
2023/07/26 01:40:14;;;;;;;12.77;8.02;;;;;;;11.20;100.00;95494.13;1011518;29;20027;-76
2023/07/26 01:40:45;;;;;;;14.13;8.48;;;;;;;11.23;100.00;95496.22;1018441;29;20070;-76
2023/07/26 01:41:16;;;;;;;11.50;7.82;;;;;;;11.25;100.00;95508.03;1023026;28;20027;-76
2023/07/26 01:41:46;;;;;;;10.55;7.28;;;;;;;11.27;100.00;95511.19;1026931;28;20023;-74
2023/07/26 01:42:17;;;;;;;12.80;8.13;;;;;;;11.23;100.00;95504.09;1020136;29;20551;-75
2023/07/26 01:42:48;;;;;;;13.25;7.82;;;;;;;11.28;100.00;95507.50;1015103;29;20305;-74
2023/07/26 01:43:18;;;;;;;13.15;7.60;;;;;;;11.22;100.00;95499.91;1018826;29;20028;-74
2023/07/26 01:43:49;;;;;;;12.00;7.78;;;;;;;11.25;100.00;95502.00;1023278;29;20576;-75
2023/07/26 01:44:19;;;;;;;13.25;7.50;;;;;;;11.31;100.00;95506.94;1027064;28;20100;-75
2023/07/26 01:44:49;;;;;;;11.05;7.82;;;;;;;11.24;100.00;95503.06;1027133;28;20035;-76
2023/07/26 01:45:20;;;;;;;19.15;8.15;;;;;;;11.31;100.00;95506.16;1027069;28;20501;-75
2023/07/26 01:45:51;;;;;;;11.40;7.40;;;;;;;11.29;100.00;95505.63;1027115;28;20030;-75
2023/07/26 01:46:21;;;;;;;13.90;7.88;;;;;;;11.29;100.00;95505.63;1027241;28;20097;-74
2023/07/26 01:46:52;;;;;;;12.25;8.00;;;;;;;11.26;100.00;95504.34;1030739;28;20061;-75
2023/07/26 01:47:23;;;;;;;12.75;8.15;;;;;;;11.27;100.00;95502.53;1027314;28;20038;-75
2023/07/26 01:47:54;;;;;;;12.18;7.55;;;;;;;11.23;100.00;95502.28;1027047;28;20269;-76
2023/07/26 01:48:24;;;;;;;12.75;7.60;;;;;;;11.22;100.00;95497.28;1024669;28;20755;-75
2023/07/26 01:48:54;;;;;;;14.32;8.00;;;;;;;11.30;100.00;95504.56;1023065;29;20046;-75
2023/07/26 01:49:25;;;;;;;14.70;8.15;;;;;;;11.16;100.00;95487.84;1023075;28;20018;-75
2023/07/26 01:49:56;;;;;;;14.07;8.00;;;;;;;11.27;100.00;95505.16;1019898;29;20071;-76
2023/07/26 01:50:26;;;;;;;14.02;8.25;;;;;;;11.30;100.00;95505.38;1014724;29;20025;-78
2023/07/26 01:50:57;;;;;;;14.43;8.40;;;;;;;11.28;100.00;95504.84;1011171;29;20425;-77
2023/07/26 01:51:27;;;;;;;12.40;8.48;;;;;;;11.30;100.00;95504.56;1018954;29;20028;-75
2023/07/26 01:51:58;;;;;;;15.45;8.80;;;;;;;11.35;100.00;95515.06;1019085;29;20633;-75
2023/07/26 01:52:28;;;;;;;12.52;8.10;;;;;;;11.33;100.00;95511.91;1023216;29;20506;-75
2023/07/26 01:52:59;;;;;;;13.35;7.57;;;;;;;11.31;100.00;95509.56;1023044;29;20038;-76
2023/07/26 01:53:29;;;;;;;14.20;8.00;;;;;;;11.33;100.00;95509.28;1015205;29;20043;-75
2023/07/26 01:53:59;;;;;;;15.15;7.35;;;;;;;11.33;100.00;95509.28;1019248;29;20494;-75
2023/07/26 01:54:30;;;;;;;12.18;7.43;;;;;;;11.24;100.00;95503.06;1023242;28;20054;-75
2023/07/26 01:55:00;;;;;;;15.27;8.23;;;;;;;11.30;100.00;95509.81;1024012;28;20042;-76
2023/07/26 01:55:31;;;;;;;11.73;7.57;;;;;;;11.26;100.00;95500.94;1022788;29;20031;-75
2023/07/26 01:56:02;;;;;;;28.38;10.05;;;;;;;11.37;100.00;95526.09;1019172;29;20035;-77
2023/07/26 01:56:32;;;;;;;14.75;7.90;;;;;;;11.35;100.00;95522.94;1011286;29;20674;-75
2023/07/26 01:57:03;;;;;;;14.32;8.43;;;;;;;11.36;100.00;95521.88;1011955;29;20052;-77
2023/07/26 01:57:33;;;;;;;13.48;7.65;;;;;;;11.27;100.00;95505.16;1015302;29;20024;-77
2023/07/26 01:58:04;;;;;;;14.82;8.82;;;;;;;11.38;100.00;95511.91;1015285;29;20028;-78
2023/07/26 01:58:34;;;;;;;15.93;8.30;;;;;;;11.39;100.00;95518.72;1017197;29;20544;-75
2023/07/26 01:59:05;;;;;;;14.07;8.18;;;;;;;11.39;100.00;95517.94;1011531;29;20028;-76
2023/07/26 01:59:35;;;;;;;11.88;7.88;;;;;;;11.36;100.00;95513.22;1015206;28;20422;-76
2023/07/26 02:00:07;;;;;;;12.77;7.70;;;;;;;11.28;100.00;95498.81;1023975;28;20064;-76
2023/07/26 02:00:38;;;;;;;16.35;7.75;;;;;;;11.28;100.00;95506.72;1022886;28;20221;-76
2023/07/26 02:01:08;;;;;;;13.82;7.68;;;;;;;11.35;100.00;95517.69;1023159;29;20085;-76
2023/07/26 02:01:39;;;;;;;13.57;7.28;;;;;;;11.32;100.00;95512.97;1015151;29;20100;-77
2023/07/26 02:02:09;;;;;;;10.75;7.38;;;;;;;11.30;100.00;95509.81;1014750;29;20035;-76
2023/07/26 02:02:40;;;;;;;12.25;8.10;;;;;;;11.30;100.00;95515.88;1015095;29;20033;-76
2023/07/26 02:03:10;;;;;;;13.48;8.07;;;;;;;11.32;100.00;95518.22;1007616;29;20032;-75
2023/07/26 02:03:41;;;;;;;14.25;7.65;;;;;;;11.33;100.00;95520.59;1015025;29;20088;-75
2023/07/26 02:04:11;;;;;;;15.48;7.53;;;;;;;11.33;100.00;95523.22;1015218;29;20024;-77
2023/07/26 02:04:44;;;;;;;9.30;7.15;;;;;;;11.28;100.00;95511.97;1019326;28;20445;-75
2023/07/26 02:05:16;;;;;;;10.02;7.47;;;;;;;11.31;100.00;95521.94;1028186;28;20134;-77
2023/07/26 02:05:47;;;;;;;15.65;8.10;;;;;;;11.25;100.00;95508.03;1027042;28;20341;-76
2023/07/26 02:06:17;;;;;;;11.38;7.40;;;;;;;11.29;100.00;95524.03;1027000;28;20031;-75
2023/07/26 02:06:48;;;;;;;12.75;7.63;;;;;;;11.29;100.00;95521.41;1027465;28;20019;-76
2023/07/26 02:07:19;;;;;;;11.85;7.30;;;;;;;11.27;100.00;95529.56;1027046;28;20031;-76
2023/07/26 02:07:49;;;;;;;12.00;7.85;;;;;;;11.26;100.00;95519.31;1031071;28;20034;-77
2023/07/26 02:08:20;;;;;;;13.63;7.90;;;;;;;11.24;100.00;95518.81;1031070;28;20026;-75
2023/07/26 02:08:50;;;;;;;11.82;7.75;;;;;;;11.25;100.00;95517.75;1030978;28;20053;-76
2023/07/26 02:09:20;;;;;;;11.07;7.20;;;;;;;11.19;100.00;95514.38;1026907;28;20023;-77
2023/07/26 02:09:51;;;;;;;14.25;7.68;;;;;;;11.30;100.00;95528.22;1026967;28;20059;-76
2023/07/26 02:10:22;;;;;;;12.13;7.72;;;;;;;11.29;100.00;95531.91;1018603;29;20520;-76
2023/07/26 02:10:53;;;;;;;16.30;8.48;;;;;;;11.30;100.00;95526.41;1016280;29;20032;-75
2023/07/26 02:11:23;;;;;;;13.73;8.00;;;;;;;11.35;100.00;95522.16;1019185;29;20278;-75
2023/07/26 02:11:54;;;;;;;17.42;8.88;;;;;;;11.29;100.00;95524.03;1015302;29;20088;-76
2023/07/26 02:12:24;;;;;;;16.90;8.30;;;;;;;11.32;100.00;95524.25;1011061;29;20033;-74
2023/07/26 02:12:55;;;;;;;11.80;6.80;;;;;;;11.31;100.00;95524.56;1018991;29;20031;-75
2023/07/26 02:13:25;;;;;;;15.20;9.23;;;;;;;11.31;100.00;95522.72;1019088;29;20039;-76
2023/07/26 02:13:55;;;;;;;12.90;9.07;;;;;;;11.25;100.00;95515.91;1019181;29;20027;-77
2023/07/26 02:14:26;;;;;;;11.95;7.70;;;;;;;11.28;100.00;95527.72;1015051;29;20576;-76
2023/07/26 02:14:56;;;;;;;12.93;7.60;;;;;;;11.14;100.00;95511.00;1019117;29;20039;-76
2023/07/26 02:15:27;;;;;;;15.05;8.57;;;;;;;11.28;100.00;95530.34;1019217;29;20541;-76
2023/07/26 02:15:57;;;;;;;14.68;7.85;;;;;;;11.17;100.00;95511.25;1020331;29;20035;-77
2023/07/26 02:16:28;;;;;;;16.77;8.35;;;;;;;11.25;100.00;95521.16;1022957;28;20397;-75
2023/07/26 02:16:58;;;;;;;12.82;7.80;;;;;;;11.13;100.00;95512.81;1015091;29;20091;-76
2023/07/26 02:17:29;;;;;;;10.05;7.22;;;;;;;11.18;100.00;95522.53;1015264;29;20053;-77
2023/07/26 02:17:59;;;;;;;13.73;7.80;;;;;;;11.21;100.00;95524.59;1015221;29;20036;-77
2023/07/26 02:18:30;;;;;;;16.55;8.02;;;;;;;11.26;100.00;95533.22;1018889;29;20378;-78
2023/07/26 02:19:00;;;;;;;15.48;8.32;;;;;;;11.28;100.00;95530.34;1019211;29;20031;-77
2023/07/26 02:19:31;;;;;;;14.80;8.68;;;;;;;11.26;100.00;95529.81;1019169;29;20032;-77
2023/07/26 02:20:02;;;;;;;14.25;8.38;;;;;;;11.27;100.00;95531.41;1015406;29;20083;-74
2023/07/26 02:20:33;;;;;;;19.58;9.95;;;;;;;11.31;100.00;95537.69;1014366;29;20028;-76
2023/07/26 02:21:04;;;;;;;12.88;8.88;;;;;;;11.32;100.00;95534.00;1015131;29;20279;-76
2023/07/26 02:21:34;;;;;;;15.50;9.30;;;;;;;11.35;100.00;95535.28;1019653;29;20298;-76
2023/07/26 02:22:05;;;;;;;16.65;8.98;;;;;;;11.36;100.00;95540.25;1024100;28;20023;-76
2023/07/26 02:22:35;;;;;;;17.27;8.88;;;;;;;11.27;100.00;95523.53;1021740;29;20051;-77
2023/07/26 02:23:06;;;;;;;15.27;8.57;;;;;;;11.30;100.00;95530.84;1011818;29;20020;-76
2023/07/26 02:23:37;;;;;;;19.15;9.20;;;;;;;11.36;100.00;95540.25;1019535;29;20141;-77
2023/07/26 02:24:08;;;;;;;14.90;8.35;;;;;;;11.24;100.00;95526.69;1019843;29;20027;-76